Time;durP1;ratioP1;P1;durP2;ratioP2;P2;SDS_P1;SDS_P2;PMS_P1;PMS_P2;Temp;Humidity;BMP_temperature;BMP_pressure;BME280_temperature;BME280_humidity;BME280_pressure;Samples;Min_cycle;Max_cycle;Signal;HPM_P1;HPM_P2
2022/05/18 00:00:54;;;;;;;2.30;1.60;;;23.40;56.70;;;;;;5031660;28;20896;-73
2022/05/18 00:03:26;;;;;;;2.23;1.37;;;23.50;56.70;;;;;;5031972;28;20851;-73
2022/05/18 00:05:54;;;;;;;2.17;1.70;;;23.40;56.50;;;;;;5030668;28;20523;-72
2022/05/18 00:08:22;;;;;;;1.23;1.10;;;23.40;56.60;;;;;;5021013;28;20933;-73
2022/05/18 00:10:51;;;;;;;1.73;1.63;;;23.40;56.60;;;;;;5031531;28;20495;-73
2022/05/18 00:13:20;;;;;;;1.50;1.23;;;23.40;56.70;;;;;;5029812;28;20506;-73
2022/05/18 00:15:49;;;;;;;1.73;1.50;;;23.50;56.80;;;;;;5031424;28;20471;-73
2022/05/18 00:18:17;;;;;;;1.60;1.43;;;23.50;56.70;;;;;;5034055;28;20442;-73
2022/05/18 00:20:47;;;;;;;1.80;1.70;;;23.40;56.70;;;;;;5027382;28;20476;-74
2022/05/18 00:23:15;;;;;;;3.83;1.60;;;23.50;56.80;;;;;;5031937;28;20452;-73
2022/05/18 00:25:43;;;;;;;2.57;2.13;;;23.50;56.70;;;;;;5015753;28;20499;-73
2022/05/18 00:28:11;;;;;;;1.63;1.50;;;23.40;56.60;;;;;;5031038;28;20543;-73
2022/05/18 00:30:40;;;;;;;1.60;1.50;;;23.40;56.60;;;;;;5031021;28;20518;-74
2022/05/18 00:33:10;;;;;;;1.93;1.63;;;23.50;56.70;;;;;;5031661;28;20444;-73
2022/05/18 00:35:39;;;;;;;3.73;1.47;;;23.40;57.80;;;;;;5027199;28;20484;-73
2022/05/18 00:38:10;;;;;;;1.70;1.60;;;23.40;56.50;;;;;;5031441;28;20438;-73
2022/05/18 00:40:43;;;;;;;1.47;1.37;;;23.40;57.60;;;;;;5030949;28;20530;-72
2022/05/18 00:43:18;;;;;;;1.50;1.40;;;23.40;56.50;;;;;;5015042;28;20966;-73
2022/05/18 00:45:46;;;;;;;1.80;1.40;;;23.40;56.50;;;;;;5015811;28;20473;-73
2022/05/18 00:48:14;;;;;;;1.50;1.40;;;23.40;56.40;;;;;;5031530;28;20457;-73
2022/05/18 00:50:43;;;;;;;1.10;1.00;;;23.40;56.50;;;;;;5027956;28;20508;-72
2022/05/18 00:53:19;;;;;;;1.80;1.70;;;23.40;56.50;;;;;;5031680;28;20859;-73
2022/05/18 00:55:54;;;;;;;1.80;1.70;;;23.40;56.40;;;;;;5022697;28;20468;-73
2022/05/18 00:58:31;;;;;;;1.63;1.53;;;23.40;56.50;;;;;;5029939;28;20762;-73
2022/05/18 01:00:59;;;;;;;1.33;1.23;;;23.40;56.50;;;;;;5024750;28;20473;-73
2022/05/18 01:03:31;;;;;;;1.40;1.30;;;23.40;56.50;;;;;;5027721;28;20463;-73
2022/05/18 01:06:13;;;;;;;2.00;1.70;;;23.40;56.40;;;;;;5024016;28;20566;-72
2022/05/18 01:08:48;;;;;;;1.87;1.40;;;23.40;56.40;;;;;;5031385;28;20433;-73
2022/05/18 01:11:17;;;;;;;0.90;0.90;;;23.40;56.40;;;;;;5030983;28;20534;-73
2022/05/18 01:13:45;;;;;;;1.47;1.37;;;23.40;56.40;;;;;;5024457;28;20940;-73
2022/05/18 01:16:14;;;;;;;1.80;1.70;;;23.40;56.40;;;;;;5030329;28;20474;-73
2022/05/18 01:18:43;;;;;;;1.83;1.73;;;23.40;56.30;;;;;;5031248;28;20860;-72
2022/05/18 01:21:11;;;;;;;2.00;1.80;;;23.40;56.40;;;;;;5018822;28;20480;-73
2022/05/18 01:23:53;;;;;;;1.57;1.47;;;23.40;56.20;;;;;;5031123;28;20427;-73
2022/05/18 01:26:35;;;;;;;1.60;1.50;;;23.30;56.20;;;;;;5029810;28;20562;-73
2022/05/18 01:29:05;;;;;;;1.50;1.40;;;23.30;56.10;;;;;;5026542;28;20964;-73
2022/05/18 01:31:46;;;;;;;1.53;1.43;;;23.30;56.20;;;;;;5030150;28;20512;-73
2022/05/18 01:34:16;;;;;;;1.47;1.37;;;23.40;56.30;;;;;;5028960;28;20442;-72
2022/05/18 01:36:44;;;;;;;1.80;1.70;;;23.30;56.30;;;;;;5023562;28;20473;-71
2022/05/18 01:39:16;;;;;;;1.93;1.83;;;23.40;56.30;;;;;;5031314;28;20440;-73
2022/05/18 01:41:54;;;;;;;1.73;1.53;;;23.40;56.40;;;;;;5026951;28;20469;-73
2022/05/18 01:44:23;;;;;;;1.43;1.33;;;23.30;56.30;;;;;;5028487;28;21008;-73
2022/05/18 01:46:52;;;;;;;1.57;1.47;;;23.30;56.20;;;;;;5030595;28;20478;-73
2022/05/18 01:49:20;;;;;;;2.43;1.60;;;23.30;56.20;;;;;;5030940;28;20493;-73
2022/05/18 01:51:52;;;;;;;2.33;1.30;;;23.30;56.20;;;;;;5028575;28;20888;-73
2022/05/18 01:54:20;;;;;;;1.50;1.33;;;23.30;56.30;;;;;;5030355;28;21179;-73
2022/05/18 01:56:49;;;;;;;1.70;1.60;;;23.30;57.50;;;;;;5028990;28;20472;-73
2022/05/18 01:59:17;;;;;;;1.93;1.83;;;23.30;56.30;;;;;;5030825;28;20453;-73
2022/05/18 02:01:46;;;;;;;1.77;1.67;;;23.30;56.20;;;;;;5031569;28;20873;-74
2022/05/18 02:04:14;;;;;;;1.70;1.60;;;23.30;56.20;;;;;;5030869;28;20542;-73
2022/05/18 02:06:43;;;;;;;1.73;1.47;;;23.30;56.30;;;;;;5036845;28;20482;-72
2022/05/18 02:09:12;;;;;;;1.80;1.50;;;23.30;56.30;;;;;;5034261;28;20485;-72
2022/05/18 02:11:40;;;;;;;2.00;1.70;;;23.30;56.20;;;;;;5030471;28;20484;-73
2022/05/18 02:14:10;;;;;;;1.90;1.73;;;23.30;56.10;;;;;;5037990;28;20486;-73
2022/05/18 02:16:38;;;;;;;1.50;1.40;;;23.30;55.90;;;;;;5032944;28;20525;-72
2022/05/18 02:19:07;;;;;;;1.77;1.67;;;23.30;55.90;;;;;;5034150;28;20439;-73
2022/05/18 02:21:35;;;;;;;2.33;2.13;;;23.30;55.80;;;;;;5028780;28;20497;-73
2022/05/18 02:24:03;;;;;;;2.30;2.10;;;23.30;55.60;;;;;;5034067;28;20429;-73
2022/05/18 02:26:31;;;;;;;1.70;1.60;;;23.30;55.50;;;;;;5031505;28;20533;-73
2022/05/18 02:28:59;;;;;;;2.77;1.70;;;23.30;55.60;;;;;;5028762;28;20961;-73
2022/05/18 02:31:29;;;;;;;1.90;1.70;;;23.30;55.70;;;;;;5031713;28;20478;-73
2022/05/18 02:33:57;;;;;;;3.13;1.90;;;23.20;55.40;;;;;;5033971;28;20824;-73
2022/05/18 02:36:26;;;;;;;1.90;1.80;;;23.30;55.60;;;;;;5031751;28;20888;-72
2022/05/18 02:38:55;;;;;;;1.70;1.60;;;23.30;55.50;;;;;;5027762;28;20821;-73
2022/05/18 02:41:23;;;;;;;2.00;1.87;;;23.30;55.50;;;;;;5031990;28;20533;-73
2022/05/18 02:43:52;;;;;;;1.50;1.40;;;23.30;55.40;;;;;;5033550;28;20461;-73
2022/05/18 02:46:22;;;;;;;2.73;2.50;;;23.20;55.20;;;;;;5032767;28;20467;-73
2022/05/18 02:48:52;;;;;;;2.47;2.27;;;23.20;55.20;;;;;;5033882;28;20781;-73
2022/05/18 02:51:22;;;;;;;2.80;1.93;;;23.20;55.10;;;;;;5029896;28;20467;-73
2022/05/18 02:53:50;;;;;;;3.03;1.73;;;23.20;55.20;;;;;;5033368;28;20916;-72
2022/05/18 02:56:23;;;;;;;3.40;1.90;;;23.20;55.20;;;;;;5032780;28;20484;-73
2022/05/18 02:58:53;;;;;;;2.20;2.00;;;23.20;55.30;;;;;;5026893;28;20429;-73
2022/05/18 03:01:23;;;;;;;2.30;2.10;;;23.20;54.80;;;;;;5032973;28;20498;-71
2022/05/18 03:03:54;;;;;;;1.97;1.87;;;23.20;54.80;;;;;;5030952;28;20441;-73
2022/05/18 03:06:25;;;;;;;1.87;1.70;;;23.20;54.80;;;;;;5016628;28;20483;-72
2022/05/18 03:08:54;;;;;;;2.37;2.17;;;23.20;55.00;;;;;;5027123;28;20504;-72
2022/05/18 03:11:22;;;;;;;1.93;1.83;;;23.20;54.80;;;;;;5031784;28;20891;-74
2022/05/18 03:13:50;;;;;;;3.60;2.00;;;23.20;54.80;;;;;;5026043;28;20531;-73
2022/05/18 03:16:19;;;;;;;2.10;2.00;;;23.20;54.80;;;;;;5032444;28;20522;-73
2022/05/18 03:18:47;;;;;;;2.43;2.23;;;23.20;54.80;;;;;;5032882;28;20447;-74
2022/05/18 03:24:02;;;;;;;2.90;2.43;;;23.20;54.80;;;;;;5029644;28;20490;-73
2022/05/18 03:26:31;;;;;;;3.17;2.50;;;23.20;54.80;;;;;;5029764;28;20466;-73
2022/05/18 03:28:59;;;;;;;2.73;2.53;;;23.20;54.90;;;;;;5028187;28;20436;-73
2022/05/18 03:31:28;;;;;;;4.50;2.50;;;23.20;54.80;;;;;;5031757;28;20893;-73
2022/05/18 03:33:56;;;;;;;2.43;2.00;;;23.20;54.70;;;;;;5032843;28;20443;-73
2022/05/18 03:36:26;;;;;;;3.33;2.00;;;23.20;54.70;;;;;;5029210;28;20482;-73
2022/05/18 03:38:55;;;;;;;2.40;2.20;;;23.20;54.90;;;;;;5027048;28;20440;-73
2022/05/18 03:41:23;;;;;;;3.13;2.10;;;23.20;54.80;;;;;;5030331;28;20507;-73
2022/05/18 03:43:52;;;;;;;2.27;1.80;;;23.20;54.70;;;;;;5031441;28;20428;-73
2022/05/18 03:46:20;;;;;;;2.20;2.00;;;23.20;54.80;;;;;;5031984;28;20545;-73
2022/05/18 03:48:48;;;;;;;1.83;1.70;;;23.20;54.90;;;;;;5032509;28;20804;-72
2022/05/18 03:51:17;;;;;;;2.20;2.00;;;23.20;54.80;;;;;;5025708;28;20471;-73
2022/05/18 03:53:46;;;;;;;1.80;1.70;;;23.20;54.90;;;;;;5031877;28;20435;-73
2022/05/18 03:56:16;;;;;;;2.40;2.20;;;23.20;54.90;;;;;;5019348;28;20472;-72
2022/05/18 03:58:44;;;;;;;1.93;1.70;;;23.20;55.00;;;;;;5030964;28;20444;-72
2022/05/18 04:01:13;;;;;;;2.40;2.10;;;23.20;56.20;;;;;;5031738;28;20475;-72
2022/05/18 04:03:43;;;;;;;2.70;2.50;;;23.20;55.20;;;;;;5032223;28;20443;-72
2022/05/18 04:06:12;;;;;;;2.27;1.90;;;23.20;55.20;;;;;;5027467;28;20464;-71
2022/05/18 04:08:41;;;;;;;2.50;2.10;;;23.20;55.10;;;;;;5035298;28;20442;-73
2022/05/18 04:11:11;;;;;;;3.60;2.03;;;23.20;55.00;;;;;;5030822;28;20478;-73
2022/05/18 04:13:40;;;;;;;3.30;2.00;;;23.10;54.90;;;;;;5015724;28;20986;-73
2022/05/18 04:16:09;;;;;;;2.70;2.10;;;23.20;55.10;;;;;;5033942;28;20536;-71
2022/05/18 04:18:37;;;;;;;2.17;1.87;;;23.10;55.00;;;;;;5031953;28;20422;-73
2022/05/18 04:21:07;;;;;;;3.03;2.23;;;23.10;54.90;;;;;;5031480;28;20479;-73
2022/05/18 04:23:37;;;;;;;1.90;1.80;;;23.10;55.00;;;;;;5029263;28;21091;-72
2022/05/18 04:26:06;;;;;;;1.73;1.63;;;23.10;55.00;;;;;;5030156;28;20563;-73
2022/05/18 04:28:36;;;;;;;2.43;2.23;;;23.10;54.90;;;;;;5028684;28;20474;-73
2022/05/18 04:31:04;;;;;;;2.13;2.00;;;23.10;54.90;;;;;;5031062;28;20505;-73
2022/05/18 04:33:33;;;;;;;2.10;2.00;;;23.10;54.90;;;;;;5030874;28;20431;-72
2022/05/18 04:36:02;;;;;;;2.57;2.23;;;23.10;55.00;;;;;;5027112;28;20483;-73
2022/05/18 04:38:32;;;;;;;2.33;2.13;;;23.10;55.00;;;;;;5024654;28;20927;-71
2022/05/18 04:41:01;;;;;;;1.80;1.70;;;23.10;55.30;;;;;;5012743;28;20471;-73
2022/05/18 04:43:32;;;;;;;2.23;1.83;;;23.10;55.30;;;;;;5023809;28;20449;-73
2022/05/18 04:46:02;;;;;;;2.37;2.27;;;23.10;55.30;;;;;;5030519;28;20481;-74
2022/05/18 04:48:31;;;;;;;1.67;1.57;;;23.10;55.40;;;;;;5030359;28;20924;-72
2022/05/18 04:51:04;;;;;;;1.90;1.80;;;23.10;55.40;;;;;;5022357;28;20484;-73
2022/05/18 04:53:33;;;;;;;1.87;1.77;;;23.10;55.50;;;;;;5024820;28;20435;-74
2022/05/18 04:56:01;;;;;;;3.20;2.30;;;23.10;55.50;;;;;;5030863;28;20503;-73
2022/05/18 04:58:29;;;;;;;1.73;1.63;;;23.10;55.60;;;;;;5028518;28;20447;-74
2022/05/18 05:00:59;;;;;;;2.17;1.97;;;23.10;55.70;;;;;;5031227;28;20530;-73
2022/05/18 05:03:29;;;;;;;2.30;2.10;;;23.10;55.70;;;;;;5031158;28;20481;-73
2022/05/18 05:06:01;;;;;;;2.17;1.97;;;23.10;55.80;;;;;;5017512;28;20551;-72
2022/05/18 05:08:30;;;;;;;1.90;1.60;;;23.10;55.80;;;;;;5031162;28;20438;-73
2022/05/18 05:10:58;;;;;;;2.67;2.10;;;23.10;55.90;;;;;;5031091;28;20465;-72
2022/05/18 05:13:26;;;;;;;4.73;1.80;;;23.10;55.90;;;;;;5023872;28;21170;-73
2022/05/18 05:16:00;;;;;;;2.63;1.90;;;23.00;55.90;;;;;;5030050;28;20483;-71
2022/05/18 05:18:30;;;;;;;2.17;2.07;;;23.10;56.00;;;;;;5031257;28;20439;-73
2022/05/18 05:20:58;;;;;;;1.87;1.77;;;23.10;56.10;;;;;;5027185;28;20530;-73
2022/05/18 05:23:27;;;;;;;2.50;1.87;;;23.10;56.20;;;;;;5029012;28;20466;-73
2022/05/18 05:25:56;;;;;;;3.27;2.17;;;23.10;56.00;;;;;;5030704;28;21000;-73
2022/05/18 05:28:25;;;;;;;2.03;1.80;;;23.10;55.90;;;;;;5025153;28;20471;-73
2022/05/18 05:30:54;;;;;;;2.37;2.17;;;23.10;55.90;;;;;;5030828;28;20464;-73
2022/05/18 05:33:22;;;;;;;1.70;1.60;;;23.10;55.90;;;;;;5030413;28;20466;-72
2022/05/18 05:35:58;;;;;;;1.77;1.57;;;23.10;56.00;;;;;;5027837;28;20477;-73
2022/05/18 05:38:27;;;;;;;2.40;2.20;;;23.10;56.00;;;;;;5035039;28;20439;-72
2022/05/18 05:40:55;;;;;;;2.10;1.87;;;23.10;56.00;;;;;;5034419;28;20462;-73
2022/05/18 05:43:23;;;;;;;2.60;2.10;;;23.10;56.10;;;;;;5025353;28;20446;-71
2022/05/18 05:45:56;;;;;;;2.33;2.13;;;23.10;56.00;;;;;;5034190;28;20467;-73
2022/05/18 05:48:25;;;;;;;2.10;1.97;;;23.10;56.10;;;;;;5034605;28;20513;-73
2022/05/18 05:50:53;;;;;;;2.30;2.10;;;23.10;56.10;;;;;;5025852;28;20477;-73
2022/05/18 05:53:22;;;;;;;2.00;1.90;;;23.10;56.00;;;;;;5032483;28;20438;-73
2022/05/18 05:55:51;;;;;;;2.20;2.03;;;23.10;55.90;;;;;;5033725;28;20513;-73
2022/05/18 05:58:19;;;;;;;2.63;2.43;;;23.10;55.80;;;;;;5027239;28;20451;-74
2022/05/18 06:00:48;;;;;;;1.83;1.73;;;23.10;55.90;;;;;;5036980;28;20538;-73
2022/05/18 06:03:17;;;;;;;2.17;1.97;;;23.10;55.70;;;;;;5034366;28;20436;-72
2022/05/18 06:05:46;;;;;;;2.17;1.97;;;23.10;55.60;;;;;;5031860;28;20907;-73
2022/05/18 06:08:14;;;;;;;2.60;2.07;;;23.10;55.50;;;;;;5033724;28;20546;-75
2022/05/18 06:10:43;;;;;;;2.40;2.20;;;23.10;55.60;;;;;;5026136;28;20477;-73
2022/05/18 06:13:13;;;;;;;4.30;2.30;;;23.10;56.80;;;;;;5026936;28;20488;-72
2022/05/18 06:15:41;;;;;;;2.17;1.93;;;23.10;55.60;;;;;;5041625;28;20473;-73
2022/05/18 06:18:10;;;;;;;2.10;1.90;;;23.10;55.60;;;;;;5034377;28;20440;-73
2022/05/18 06:20:47;;;;;;;2.13;2.03;;;23.10;55.80;;;;;;5033380;28;20470;-74
2022/05/18 06:23:17;;;;;;;2.13;1.93;;;23.10;55.80;;;;;;5026311;28;20449;-73
2022/05/18 06:25:46;;;;;;;2.23;2.03;;;23.10;55.90;;;;;;5033550;28;20608;-73
2022/05/18 06:28:15;;;;;;;2.37;2.23;;;23.10;55.90;;;;;;5031767;28;20876;-72
2022/05/18 06:30:43;;;;;;;2.07;1.63;;;23.10;55.80;;;;;;5026424;28;20501;-74
2022/05/18 06:33:11;;;;;;;2.00;1.90;;;23.10;56.80;;;;;;5033800;28;20469;-73
2022/05/18 06:35:40;;;;;;;2.30;1.77;;;23.10;55.70;;;;;;5017092;28;20475;-72
2022/05/18 06:38:12;;;;;;;1.93;1.83;;;23.10;55.80;;;;;;5033870;28;20502;-73
2022/05/18 06:43:29;;;;;;;3.80;2.10;;;23.10;55.80;;;;;;5031202;28;20451;-73
2022/05/18 06:45:58;;;;;;;2.23;2.00;;;23.20;55.40;;;;;;5021537;28;20477;-73
2022/05/18 06:48:26;;;;;;;2.73;2.07;;;23.20;55.40;;;;;;5033039;28;20476;-72
2022/05/18 06:51:17;;;;;;;1.70;1.60;;;23.10;55.30;;;;;;5023914;28;20501;-73
2022/05/18 06:53:46;;;;;;;3.87;1.90;;;23.20;55.40;;;;;;5029985;28;20489;-72
2022/05/18 06:56:14;;;;;;;2.57;2.00;;;23.20;55.40;;;;;;5013296;28;21003;-73
2022/05/18 06:58:44;;;;;;;2.43;2.10;;;23.10;55.40;;;;;;5023015;28;20476;-73
2022/05/18 07:01:18;;;;;;;1.60;1.50;;;23.20;55.60;;;;;;5033519;28;20459;-73
2022/05/18 07:03:47;;;;;;;1.90;1.70;;;23.20;55.70;;;;;;5032832;28;20452;-73
2022/05/18 07:06:17;;;;;;;3.53;1.97;;;23.10;55.60;;;;;;5031442;28;21083;-73
2022/05/18 07:08:45;;;;;;;2.73;2.00;;;23.20;55.90;;;;;;5022646;28;20486;-73
2022/05/18 07:11:14;;;;;;;2.10;2.00;;;23.20;55.90;;;;;;5032655;28;20493;-72
2022/05/18 07:13:42;;;;;;;2.53;2.03;;;23.20;56.10;;;;;;5017532;28;20443;-73
2022/05/18 07:16:12;;;;;;;2.20;1.67;;;23.20;56.00;;;;;;5032337;28;20473;-72
2022/05/18 07:18:41;;;;;;;1.57;1.47;;;23.20;56.10;;;;;;5032989;28;20443;-73
2022/05/18 07:21:09;;;;;;;2.40;2.10;;;23.20;56.20;;;;;;5025902;28;20464;-73
2022/05/18 07:23:37;;;;;;;2.10;1.90;;;23.20;56.20;;;;;;5023523;28;20500;-73
2022/05/18 07:26:05;;;;;;;2.60;2.23;;;23.20;56.20;;;;;;5031096;28;20475;-73
2022/05/18 07:28:34;;;;;;;2.40;1.87;;;23.20;56.20;;;;;;5024121;28;20979;-73
2022/05/18 07:31:02;;;;;;;2.10;2.00;;;23.20;56.20;;;;;;5032289;28;20520;-73
2022/05/18 07:33:31;;;;;;;2.60;2.40;;;23.20;56.20;;;;;;5031316;28;20437;-71
2022/05/18 07:35:59;;;;;;;2.00;1.90;;;23.20;56.20;;;;;;5022275;28;20479;-72
2022/05/18 07:38:30;;;;;;;2.30;2.10;;;23.10;56.10;;;;;;5029130;28;20439;-73
2022/05/18 07:41:08;;;;;;;2.27;1.60;;;23.20;56.20;;;;;;5032374;28;20477;-73
2022/05/18 07:43:37;;;;;;;1.60;1.50;;;23.20;56.20;;;;;;5026931;28;20442;-72
2022/05/18 07:46:06;;;;;;;1.90;1.80;;;23.20;56.20;;;;;;5031629;28;20494;-73
2022/05/18 07:48:36;;;;;;;1.90;1.80;;;23.20;56.20;;;;;;5024915;28;20965;-72
2022/05/18 07:51:05;;;;;;;2.07;1.97;;;23.20;56.30;;;;;;5031022;28;20477;-72
2022/05/18 07:53:33;;;;;;;2.00;1.80;;;23.20;56.20;;;;;;5032301;28;20429;-73
2022/05/18 07:56:01;;;;;;;1.60;1.50;;;23.20;56.20;;;;;;5030593;28;20472;-73
2022/05/18 07:58:30;;;;;;;2.60;1.87;;;23.20;56.20;;;;;;5015977;28;20438;-71
2022/05/18 08:00:58;;;;;;;1.50;1.40;;;23.20;56.20;;;;;;5031598;28;20546;-73
2022/05/18 08:03:26;;;;;;;2.33;2.10;;;23.20;56.20;;;;;;5031670;28;20433;-72
2022/05/18 08:05:55;;;;;;;1.87;1.30;;;23.20;56.30;;;;;;5031402;28;20465;-72
2022/05/18 08:08:23;;;;;;;1.90;1.80;;;23.20;56.30;;;;;;5018356;28;20458;-73
2022/05/18 08:16:25;;;;;;;3.23;1.60;;;23.20;56.30;;;;;;5031251;28;20480;-73
2022/05/18 08:18:53;;;;;;;1.97;1.87;;;23.20;56.20;;;;;;5031948;28;20440;-73
2022/05/18 08:21:22;;;;;;;1.97;1.77;;;23.20;56.20;;;;;;5032782;28;20487;-73
2022/05/18 08:23:51;;;;;;;1.70;1.60;;;23.20;56.30;;;;;;5031887;28;20447;-73
2022/05/18 08:26:24;;;;;;;2.00;1.63;;;23.20;56.30;;;;;;5030025;28;20463;-73
2022/05/18 08:28:53;;;;;;;2.10;1.60;;;23.20;56.20;;;;;;5027638;28;20558;-73
2022/05/18 08:31:23;;;;;;;1.60;1.50;;;23.20;56.20;;;;;;5020682;28;20525;-73
2022/05/18 08:33:52;;;;;;;1.50;1.40;;;23.20;56.20;;;;;;5031979;28;20860;-73
2022/05/18 08:36:23;;;;;;;1.93;1.83;;;23.20;56.30;;;;;;5024281;28;20477;-72
2022/05/18 08:38:52;;;;;;;2.20;2.10;;;23.20;56.20;;;;;;5031806;28;20432;-72
2022/05/18 08:41:22;;;;;;;1.77;1.67;;;23.20;56.20;;;;;;5030848;28;20501;-72
2022/05/18 08:43:54;;;;;;;1.53;1.43;;;23.20;56.30;;;;;;5016579;28;20465;-73
2022/05/18 08:46:34;;;;;;;1.43;1.33;;;23.20;56.20;;;;;;5030942;28;20508;-72
2022/05/18 08:49:11;;;;;;;1.80;1.70;;;23.20;56.20;;;;;;5031215;28;20479;-73
2022/05/18 08:51:51;;;;;;;1.60;1.50;;;23.20;56.20;;;;;;5026978;28;20535;-73
2022/05/18 08:54:45;;;;;;;1.80;1.70;;;23.20;56.30;;;;;;5028701;28;20444;-73
2022/05/18 08:57:21;;;;;;;1.90;1.80;;;23.20;56.40;;;;;;5024066;28;20522;-72
2022/05/18 08:59:52;;;;;;;1.87;1.77;;;23.20;56.30;;;;;;5031506;28;20924;-72
2022/05/18 09:02:30;;;;;;;1.50;1.37;;;23.20;56.30;;;;;;5021150;28;20444;-71
2022/05/18 09:05:03;;;;;;;1.97;1.60;;;23.20;56.30;;;;;;5023121;28;20448;-73
2022/05/18 09:08:02;;;;;;;1.77;1.60;;;23.20;56.30;;;;;;5024011;28;20867;-73
2022/05/18 09:10:35;;;;;;;1.90;1.60;;;23.20;56.30;;;;;;5031864;28;20454;-72
2022/05/18 09:13:04;;;;;;;1.90;1.80;;;23.20;56.20;;;;;;5028062;28;20492;-73
2022/05/18 09:15:39;;;;;;;1.83;1.73;;;23.20;56.30;;;;;;5034814;28;20477;-73
2022/05/18 09:18:19;;;;;;;1.50;1.40;;;23.20;56.20;;;;;;5035119;28;20431;-72
2022/05/18 09:20:49;;;;;;;2.40;1.73;;;23.30;56.30;;;;;;5028673;28;20888;-73
2022/05/18 09:23:38;;;;;;;1.97;1.83;;;23.30;56.30;;;;;;5035091;28;20459;-73
2022/05/18 09:26:17;;;;;;;1.90;1.80;;;23.30;56.30;;;;;;5034238;28;20468;-73
2022/05/18 09:28:52;;;;;;;2.73;1.83;;;23.30;56.30;;;;;;5027830;28;20847;-72
2022/05/18 09:31:39;;;;;;;2.13;2.03;;;23.20;56.10;;;;;;5034475;28;20469;-73
2022/05/18 09:34:21;;;;;;;1.70;1.60;;;23.30;56.20;;;;;;5034560;28;20432;-73
2022/05/18 09:37:06;;;;;;;2.20;1.47;;;23.30;56.20;;;;;;5032950;28;20507;-73
2022/05/18 09:39:40;;;;;;;1.80;1.57;;;23.30;56.20;;;;;;5034669;28;20969;-72
2022/05/18 09:42:12;;;;;;;1.50;1.40;;;23.30;56.80;;;;;;5027916;28;20500;-72
2022/05/18 09:44:46;;;;;;;1.80;1.70;;;23.30;55.50;;;;;;5015301;28;20504;-72
2022/05/18 09:47:17;;;;;;;1.93;1.80;;;23.30;55.40;;;;;;5014872;28;20449;-72
2022/05/18 09:49:49;;;;;;;2.40;2.17;;;23.30;55.50;;;;;;5014947;28;20498;-72
2022/05/18 09:52:24;;;;;;;2.00;1.90;;;23.30;55.60;;;;;;5014959;28;20949;-72
2022/05/18 09:54:55;;;;;;;2.33;1.83;;;23.30;55.50;;;;;;5030830;28;20920;-73
2022/05/18 09:57:28;;;;;;;2.00;1.90;;;23.30;55.60;;;;;;5026005;28;20476;-72
2022/05/18 10:00:00;;;;;;;1.80;1.70;;;23.30;55.60;;;;;;5014978;28;20483;-73
2022/05/18 10:08:11;;;;;;;2.23;1.70;;;23.30;55.70;;;;;;5015093;28;20453;-72
2022/05/18 10:10:41;;;;;;;1.80;1.70;;;23.30;55.80;;;;;;5014225;28;20469;-72
2022/05/18 10:13:13;;;;;;;1.60;1.50;;;23.30;55.80;;;;;;5014629;28;20938;-72
2022/05/18 10:16:04;;;;;;;2.10;1.70;;;23.30;55.70;;;;;;5014012;28;20461;-72
2022/05/18 10:18:41;;;;;;;2.10;1.87;;;23.30;55.70;;;;;;5014844;28;20450;-72
2022/05/18 10:21:25;;;;;;;1.50;1.40;;;23.30;55.80;;;;;;5013796;28;20472;-73
2022/05/18 10:24:01;;;;;;;1.77;1.67;;;23.30;55.70;;;;;;5021558;28;20457;-72
2022/05/18 10:26:33;;;;;;;2.13;1.60;;;23.40;55.80;;;;;;5050944;28;20568;-72
2022/05/18 10:29:04;;;;;;;2.30;2.10;;;23.30;55.70;;;;;;5014167;28;20934;-72
2022/05/18 10:31:35;;;;;;;3.60;1.60;;;23.30;55.70;;;;;;5013937;28;20877;-72
2022/05/18 10:34:15;;;;;;;2.60;2.10;;;23.30;55.70;;;;;;5014432;28;20429;-73
2022/05/18 10:36:46;;;;;;;1.93;1.73;;;23.30;55.60;;;;;;5014322;28;20985;-73
2022/05/18 10:39:30;;;;;;;2.07;1.87;;;23.30;55.60;;;;;;5014278;28;20437;-72
2022/05/18 10:42:02;;;;;;;3.20;2.33;;;23.40;55.80;;;;;;5013867;28;20815;-73
2022/05/18 10:44:35;;;;;;;1.67;1.50;;;23.40;55.90;;;;;;5014226;28;20826;-73
2022/05/18 10:47:21;;;;;;;2.03;1.83;;;23.30;55.70;;;;;;5014036;28;20468;-72
2022/05/18 10:49:49;;;;;;;1.70;1.60;;;23.40;55.80;;;;;;5024209;28;20474;-72
2022/05/18 10:52:21;;;;;;;1.73;1.63;;;23.40;55.90;;;;;;5028692;28;20522;-72
2022/05/18 10:54:55;;;;;;;1.73;1.63;;;23.30;55.70;;;;;;5013815;28;20923;-72
2022/05/18 10:57:33;;;;;;;1.67;1.57;;;23.40;55.90;;;;;;5014148;28;20468;-71
2022/05/18 11:00:07;;;;;;;1.47;1.37;;;23.40;55.80;;;;;;5013297;28;20417;-72
2022/05/18 11:02:46;;;;;;;2.00;1.90;;;23.40;55.90;;;;;;5013821;28;20435;-72
2022/05/18 11:05:27;;;;;;;1.90;1.80;;;23.40;55.90;;;;;;5013184;28;20561;-72
2022/05/18 11:07:55;;;;;;;2.93;1.90;;;23.40;55.90;;;;;;5018724;28;20437;-73
2022/05/18 11:10:38;;;;;;;1.93;1.83;;;23.40;56.00;;;;;;5032847;28;20489;-72
2022/05/18 11:13:15;;;;;;;2.30;2.10;;;23.40;56.00;;;;;;5018722;28;20444;-73
2022/05/18 11:15:49;;;;;;;2.00;1.53;;;23.40;56.00;;;;;;5013124;28;20474;-72
2022/05/18 11:18:24;;;;;;;1.70;1.60;;;23.40;56.10;;;;;;5013546;28;20458;-72
2022/05/18 11:21:07;;;;;;;1.57;1.47;;;23.50;56.20;;;;;;5012748;28;20471;-73
2022/05/18 11:23:45;;;;;;;1.77;1.67;;;23.50;56.30;;;;;;5013707;28;20418;-72
2022/05/18 11:26:25;;;;;;;1.40;1.30;;;23.40;56.20;;;;;;5013187;28;20971;-72
2022/05/18 11:29:21;;;;;;;1.60;1.50;;;23.50;56.30;;;;;;5013230;28;20776;-72
2022/05/18 11:32:13;;;;;;;2.30;2.10;;;23.40;56.30;;;;;;5012916;28;20460;-73
2022/05/18 11:34:50;;;;;;;1.90;1.60;;;23.50;56.40;;;;;;5013052;28;20429;-73
2022/05/18 11:37:46;;;;;;;1.67;1.57;;;23.50;56.40;;;;;;5012982;28;21080;-72
2022/05/18 11:40:22;;;;;;;1.93;1.60;;;23.50;56.40;;;;;;5012629;28;20454;-73
2022/05/18 11:43:25;;;;;;;1.80;1.70;;;23.50;56.40;;;;;;5013040;28;20462;-72
2022/05/18 11:46:05;;;;;;;1.83;1.73;;;23.50;56.40;;;;;;5012331;28;20465;-72
2022/05/18 11:48:41;;;;;;;2.00;1.90;;;23.50;56.50;;;;;;5013283;28;20856;-71
2022/05/18 11:51:19;;;;;;;1.70;1.60;;;23.50;56.60;;;;;;5027229;28;20463;-72
2022/05/18 11:53:57;;;;;;;1.47;1.37;;;23.50;56.50;;;;;;5032671;28;20433;-73
2022/05/18 11:56:33;;;;;;;2.40;2.20;;;23.50;56.60;;;;;;5031108;28;20477;-72
2022/05/18 11:59:28;;;;;;;1.90;1.80;;;23.50;56.60;;;;;;5013045;28;20430;-72
2022/05/18 12:02:14;;;;;;;1.83;1.73;;;23.50;56.50;;;;;;5012316;28;20470;-72
2022/05/18 12:05:01;;;;;;;1.47;1.37;;;23.50;56.50;;;;;;5012435;28;20444;-72
2022/05/18 12:07:55;;;;;;;1.90;1.70;;;23.50;56.60;;;;;;5012340;28;20472;-72
2022/05/18 12:10:29;;;;;;;1.80;1.70;;;23.60;56.70;;;;;;5012218;28;20812;-72
2022/05/18 12:13:03;;;;;;;2.23;1.70;;;23.60;56.70;;;;;;5012510;28;20936;-72
2022/05/18 12:15:56;;;;;;;1.70;1.60;;;23.50;56.60;;;;;;5012020;28;20469;-72
2022/05/18 12:18:32;;;;;;;1.60;1.50;;;23.50;56.60;;;;;;5012672;28;20512;-72
2022/05/18 12:21:06;;;;;;;2.20;1.40;;;23.60;56.70;;;;;;5011873;28;20473;-72
2022/05/18 12:23:40;;;;;;;1.77;1.67;;;23.60;56.70;;;;;;5012416;28;20456;-72
2022/05/18 12:26:08;;;;;;;1.60;1.50;;;23.60;56.70;;;;;;5033783;28;20473;-72
2022/05/18 12:28:37;;;;;;;1.70;1.60;;;23.60;56.70;;;;;;5013542;28;20519;-73
2022/05/18 12:31:06;;;;;;;1.60;1.50;;;23.60;56.60;;;;;;5011642;28;20469;-72
2022/05/18 12:33:44;;;;;;;2.10;1.77;;;23.60;56.50;;;;;;5012755;28;20789;-72
2022/05/18 12:36:16;;;;;;;2.13;2.00;;;23.60;56.60;;;;;;5011776;28;20474;-73
2022/05/18 12:38:55;;;;;;;1.67;1.50;;;23.60;56.50;;;;;;5012452;28;20424;-71
2022/05/18 12:41:28;;;;;;;1.70;1.60;;;23.60;56.60;;;;;;5013332;28;20485;-72
2022/05/18 12:44:07;;;;;;;2.00;1.73;;;23.60;56.60;;;;;;5012293;28;20460;-72
2022/05/18 12:46:39;;;;;;;2.17;1.43;;;23.70;56.70;;;;;;5011350;28;20478;-73
2022/05/18 12:49:16;;;;;;;1.63;1.53;;;23.70;56.60;;;;;;5012366;28;20436;-73
2022/05/18 12:51:56;;;;;;;1.40;1.30;;;23.60;56.50;;;;;;5026876;28;20464;-73
2022/05/18 12:54:33;;;;;;;1.83;1.50;;;23.70;56.70;;;;;;5031704;28;20408;-72
2022/05/18 12:57:20;;;;;;;1.93;1.83;;;23.70;56.60;;;;;;5025475;28;20554;-73
2022/05/18 13:00:17;;;;;;;1.70;1.60;;;23.70;56.70;;;;;;5012117;28;20473;-72
2022/05/18 13:02:55;;;;;;;1.63;1.53;;;23.70;56.60;;;;;;4999893;28;20455;-72
2022/05/18 13:05:40;;;;;;;1.80;1.70;;;23.80;56.70;;;;;;5011475;28;20456;-73
2022/05/18 13:08:42;;;;;;;1.80;1.70;;;23.70;56.60;;;;;;5012342;28;20426;-72
2022/05/18 13:11:17;;;;;;;2.00;1.57;;;23.80;56.70;;;;;;5011289;28;20470;-72
2022/05/18 13:14:18;;;;;;;1.70;1.60;;;23.80;56.70;;;;;;5011895;28;20445;-72
2022/05/18 13:17:19;;;;;;;1.70;1.60;;;23.80;56.70;;;;;;5028501;28;20556;-72
2022/05/18 13:19:59;;;;;;;1.90;1.80;;;23.80;56.70;;;;;;5031949;28;20415;-73
2022/05/18 13:23:00;;;;;;;2.00;1.90;;;23.80;56.60;;;;;;4996737;28;20892;-72
2022/05/18 13:25:30;;;;;;;2.57;1.77;;;23.80;56.60;;;;;;4991500;28;20468;-73
2022/05/18 13:28:00;;;;;;;1.60;1.50;;;23.80;56.60;;;;;;5011467;28;20441;-73
2022/05/18 13:30:37;;;;;;;1.73;1.63;;;23.80;56.60;;;;;;5011418;28;20538;-73
2022/05/18 13:33:29;;;;;;;4.33;2.10;;;23.80;56.60;;;;;;5026464;28;20452;-73